Time;durP1;ratioP1;P1;durP2;ratioP2;P2;SDS_P1;SDS_P2;PMS_P1;PMS_P2;Temp;Humidity;BMP_temperature;BMP_pressure;BME280_temperature;BME280_humidity;BME280_pressure;Samples;Min_cycle;Max_cycle;Signal;HPM_P1;HPM_P2
2021/01/20 00:01:54;;;;;;;6.80;3.03;;;;;;;;;;5104602;28;20047;-59
2021/01/20 00:04:19;;;;;;;7.15;3.72;;;;;;;;;;5101776;28;20376;-59
2021/01/20 00:06:44;;;;;;;7.75;3.22;;;;;;;;;;5109512;28;20035;-59
2021/01/20 00:09:10;;;;;;;5.95;3.70;;;;;;;;;;5108592;28;20035;-59
2021/01/20 00:11:35;;;;;;;5.18;2.85;;;;;;;;;;5104457;28;20024;-60
2021/01/20 00:14:00;;;;;;;6.82;3.88;;;;;;;;;;5106985;28;20481;-59
2021/01/20 00:16:26;;;;;;;7.00;3.35;;;;;;;;;;5105782;28;20114;-59
2021/01/20 00:18:51;;;;;;;6.97;3.15;;;;;;;;;;5110807;28;20031;-60
2021/01/20 00:21:16;;;;;;;4.22;2.53;;;;;;;;;;5109293;28;20047;-59
2021/01/20 00:23:42;;;;;;;6.18;3.20;;;;;;;;;;5107369;28;20457;-57
2021/01/20 00:26:07;;;;;;;5.90;2.95;;;;;;;;;;5108946;28;20050;-58
2021/01/20 00:28:32;;;;;;;7.55;3.60;;;;;;;;;;5109056;28;20039;-58
2021/01/20 00:30:58;;;;;;;5.05;3.13;;;;;;;;;;5106233;28;20055;-59
2021/01/20 00:33:23;;;;;;;5.68;3.25;;;;;;;;;;5106829;28;20032;-60
2021/01/20 00:35:49;;;;;;;6.75;3.28;;;;;;;;;;5105573;28;20067;-59
2021/01/20 00:38:15;;;;;;;5.38;3.05;;;;;;;;;;5107141;28;20379;-58
2021/01/20 00:40:40;;;;;;;5.63;3.45;;;;;;;;;;5100348;28;20051;-58
2021/01/20 00:43:05;;;;;;;5.43;3.22;;;;;;;;;;5103522;28;20059;-59
2021/01/20 00:45:31;;;;;;;6.22;3.08;;;;;;;;;;5103559;28;20053;-58
2021/01/20 00:47:56;;;;;;;5.45;3.33;;;;;;;;;;5106649;28;20084;-59
2021/01/20 00:50:21;;;;;;;5.72;3.28;;;;;;;;;;5107659;28;20457;-59
2021/01/20 00:52:47;;;;;;;9.80;3.10;;;;;;;;;;5103160;28;20023;-58
2021/01/20 00:55:14;;;;;;;6.18;3.70;;;;;;;;;;5105024;28;20044;-59
2021/01/20 00:57:40;;;;;;;8.35;3.92;;;;;;;;;;5104960;28;20032;-59
2021/01/20 01:00:06;;;;;;;6.53;3.58;;;;;;;;;;5105968;28;20428;-59
2021/01/20 01:02:31;;;;;;;5.90;3.17;;;;;;;;;;5109128;28;20649;-58
2021/01/20 01:04:57;;;;;;;6.38;3.22;;;;;;;;;;5104719;28;20067;-58
2021/01/20 01:07:22;;;;;;;6.30;3.47;;;;;;;;;;5104031;28;20069;-59
2021/01/20 01:09:47;;;;;;;8.65;3.40;;;;;;;;;;5107142;28;20028;-58
2021/01/20 01:12:13;;;;;;;6.57;3.28;;;;;;;;;;5107306;28;20039;-57
2021/01/20 01:14:38;;;;;;;5.07;2.97;;;;;;;;;;5102854;28;20077;-58
2021/01/20 01:17:03;;;;;;;5.68;3.25;;;;;;;;;;5109355;28;20031;-58
2021/01/20 01:19:29;;;;;;;7.03;3.58;;;;;;;;;;5106621;28;20457;-58
2021/01/20 01:21:54;;;;;;;5.97;3.67;;;;;;;;;;5105815;28;20031;-58
2021/01/20 01:24:19;;;;;;;6.22;3.72;;;;;;;;;;5107205;28;20065;-58
2021/01/20 01:26:44;;;;;;;6.55;3.80;;;;;;;;;;5103973;28;20066;-58
2021/01/20 01:29:10;;;;;;;6.43;3.58;;;;;;;;;;5105698;28;20118;-58
2021/01/20 01:31:35;;;;;;;8.35;3.70;;;;;;;;;;5109764;28;20107;-58
2021/01/20 01:34:00;;;;;;;7.15;3.63;;;;;;;;;;5107207;28;20055;-58
2021/01/20 01:36:26;;;;;;;4.97;3.10;;;;;;;;;;5106122;28;20027;-58
2021/01/20 01:38:51;;;;;;;6.72;3.22;;;;;;;;;;5108817;28;20039;-58
2021/01/20 01:41:16;;;;;;;6.57;3.92;;;;;;;;;;5107534;28;20043;-58
2021/01/20 01:43:42;;;;;;;6.65;3.33;;;;;;;;;;5104213;28;20031;-58
2021/01/20 01:46:07;;;;;;;5.88;3.30;;;;;;;;;;5109780;28;20120;-59
2021/01/20 01:48:32;;;;;;;8.10;3.35;;;;;;;;;;5105821;28;20045;-58
2021/01/20 01:50:58;;;;;;;6.50;2.90;;;;;;;;;;5104712;28;20066;-58
2021/01/20 01:53:23;;;;;;;6.85;3.50;;;;;;;;;;5109386;28;20418;-58
2021/01/20 01:55:49;;;;;;;7.80;3.70;;;;;;;;;;5104748;28;20039;-58
2021/01/20 01:58:15;;;;;;;5.65;3.13;;;;;;;;;;5105182;28;20035;-59
2021/01/20 02:00:41;;;;;;;5.78;3.08;;;;;;;;;;5107970;28;20024;-59
2021/01/20 02:03:06;;;;;;;8.23;3.25;;;;;;;;;;5107660;28;20028;-58
2021/01/20 02:05:32;;;;;;;4.75;2.88;;;;;;;;;;5105981;28;20066;-58
2021/01/20 02:07:57;;;;;;;5.75;3.20;;;;;;;;;;5108642;28;20104;-59
2021/01/20 02:10:23;;;;;;;5.63;3.15;;;;;;;;;;5105714;28;20071;-58
2021/01/20 02:13:07;;;;;;;7.80;3.30;;;;;;;;;;5104582;28;20394;-58
2021/01/20 02:15:40;;;;;;;5.10;2.70;;;;;;;;;;5106461;28;20050;-59
2021/01/20 02:18:13;;;;;;;5.25;2.95;;;;;;;;;;5104401;28;20457;-58
2021/01/20 02:21:38;;;;;;;6.20;3.00;;;;;;;;;;5104452;28;20419;-58
2021/01/20 02:24:10;;;;;;;6.32;3.10;;;;;;;;;;5064104;28;20040;-58
2021/01/20 02:26:54;;;;;;;5.15;3.10;;;;;;;;;;5061647;28;20068;-58
2021/01/20 02:29:34;;;;;;;8.52;3.15;;;;;;;;;;5086404;28;20054;-58
2021/01/20 02:32:01;;;;;;;6.97;3.60;;;;;;;;;;5106743;28;20051;-58
2021/01/20 02:34:27;;;;;;;7.72;3.10;;;;;;;;;;5103606;28;20460;-58
2021/01/20 02:36:55;;;;;;;6.40;3.00;;;;;;;;;;5109312;28;20413;-58
2021/01/20 02:39:20;;;;;;;5.65;3.03;;;;;;;;;;5106069;28;20058;-58
2021/01/20 02:41:46;;;;;;;6.20;3.40;;;;;;;;;;5103601;28;20449;-58
2021/01/20 02:44:11;;;;;;;5.82;2.70;;;;;;;;;;5109071;28;20058;-59
2021/01/20 02:46:39;;;;;;;6.70;2.50;;;;;;;;;;5105595;28;20028;-58
2021/01/20 02:49:04;;;;;;;4.93;2.83;;;;;;;;;;5105660;28;20046;-59
2021/01/20 02:51:39;;;;;;;5.75;2.80;;;;;;;;;;5108300;28;20593;-59
2021/01/20 02:54:06;;;;;;;6.65;3.10;;;;;;;;;;5104639;28;20047;-58
2021/01/20 02:56:33;;;;;;;5.13;2.97;;;;;;;;;;5105973;28;20081;-58
2021/01/20 02:59:01;;;;;;;5.90;3.15;;;;;;;;;;5109140;28;20145;-58
2021/01/20 03:01:28;;;;;;;5.25;2.47;;;;;;;;;;5106193;28;20047;-58
2021/01/20 03:03:57;;;;;;;5.60;2.78;;;;;;;;;;5108523;28;20164;-58
2021/01/20 03:06:24;;;;;;;5.05;3.08;;;;;;;;;;5112253;28;20031;-58
2021/01/20 03:08:50;;;;;;;7.85;3.03;;;;;;;;;;5108980;28;20028;-58
2021/01/20 03:11:15;;;;;;;6.60;2.70;;;;;;;;;;5108014;28;20038;-59
2021/01/20 03:13:43;;;;;;;7.28;3.38;;;;;;;;;;5111918;28;20059;-58
2021/01/20 03:16:08;;;;;;;7.82;2.80;;;;;;;;;;5107187;28;20590;-58
2021/01/20 03:18:33;;;;;;;6.35;3.03;;;;;;;;;;5108239;28;20039;-59
2021/01/20 03:20:59;;;;;;;4.88;2.50;;;;;;;;;;5112492;28;20492;-59
2021/01/20 03:23:24;;;;;;;6.55;3.08;;;;;;;;;;5106034;28;20053;-59
2021/01/20 03:25:50;;;;;;;4.82;2.85;;;;;;;;;;5106870;28;20101;-59
2021/01/20 03:28:15;;;;;;;4.78;2.60;;;;;;;;;;5112481;28;20039;-58
2021/01/20 03:30:40;;;;;;;5.13;2.92;;;;;;;;;;5105913;28;20143;-58
2021/01/20 03:33:06;;;;;;;4.88;3.00;;;;;;;;;;5112024;28;20028;-58
2021/01/20 03:35:34;;;;;;;4.53;2.45;;;;;;;;;;5108385;28;20143;-59
2021/01/20 03:38:02;;;;;;;4.50;2.97;;;;;;;;;;5116019;27;20461;-58
2021/01/20 03:40:28;;;;;;;6.13;2.63;;;;;;;;;;5103842;28;20028;-59
2021/01/20 03:42:53;;;;;;;5.38;2.83;;;;;;;;;;5111477;27;20406;-58
2021/01/20 03:45:19;;;;;;;11.38;3.17;;;;;;;;;;5108800;28;20039;-59
2021/01/20 03:47:44;;;;;;;10.75;4.22;;;;;;;;;;5108443;28;20058;-59
2021/01/20 03:50:10;;;;;;;18.27;9.57;;;;;;;;;;5109177;28;20095;-57
2021/01/20 03:52:35;;;;;;;6.90;3.70;;;;;;;;;;5105915;28;20062;-58
2021/01/20 03:55:01;;;;;;;4.45;2.60;;;;;;;;;;5110842;28;20104;-58
2021/01/20 03:57:26;;;;;;;5.50;2.60;;;;;;;;;;5108793;28;20097;-58
2021/01/20 03:59:51;;;;;;;5.45;2.78;;;;;;;;;;5105521;28;20039;-59
2021/01/20 04:02:17;;;;;;;6.18;2.67;;;;;;;;;;5107507;28;20035;-59
2021/01/20 04:04:42;;;;;;;6.32;3.00;;;;;;;;;;5109667;28;20024;-58
2021/01/20 04:07:07;;;;;;;4.90;2.50;;;;;;;;;;5107502;28;20027;-58
2021/01/20 04:09:33;;;;;;;4.68;2.80;;;;;;;;;;5106239;28;20043;-59
2021/01/20 04:11:58;;;;;;;4.75;2.25;;;;;;;;;;5108512;28;20032;-60
2021/01/20 04:14:24;;;;;;;3.08;1.77;;;;;;;;;;5106533;28;20480;-59
2021/01/20 04:16:49;;;;;;;5.13;2.78;;;;;;;;;;5109391;28;20460;-59
2021/01/20 04:19:15;;;;;;;5.90;2.70;;;;;;;;;;5109528;28;20043;-59
2021/01/20 04:21:40;;;;;;;4.57;2.45;;;;;;;;;;5105836;28;20043;-58
2021/01/20 04:24:06;;;;;;;6.95;2.83;;;;;;;;;;5108048;28;20040;-58
2021/01/20 04:26:32;;;;;;;4.68;2.58;;;;;;;;;;5111044;28;20039;-58
2021/01/20 04:28:57;;;;;;;5.85;2.88;;;;;;;;;;5106285;28;20372;-58
2021/01/20 04:31:22;;;;;;;5.45;2.33;;;;;;;;;;5108102;28;20032;-58
2021/01/20 04:33:48;;;;;;;5.13;2.50;;;;;;;;;;5106856;28;20036;-58
2021/01/20 04:36:13;;;;;;;6.43;2.80;;;;;;;;;;5109322;28;20492;-58
2021/01/20 04:38:38;;;;;;;4.55;2.67;;;;;;;;;;5107870;28;20036;-59
2021/01/20 04:41:04;;;;;;;4.97;2.42;;;;;;;;;;5107921;27;20050;-59
2021/01/20 04:43:29;;;;;;;4.80;2.50;;;;;;;;;;5110960;27;20031;-59
2021/01/20 04:45:55;;;;;;;5.35;2.92;;;;;;;;;;5108524;28;20045;-58
2021/01/20 04:48:21;;;;;;;7.60;2.78;;;;;;;;;;5110198;28;20023;-58
2021/01/20 04:50:48;;;;;;;4.93;2.67;;;;;;;;;;5103876;28;20052;-59
2021/01/20 04:53:14;;;;;;;4.53;2.42;;;;;;;;;;5106316;28;20036;-58
2021/01/20 04:55:43;;;;;;;4.78;2.70;;;;;;;;;;5106686;28;20035;-58
2021/01/20 04:58:10;;;;;;;5.15;2.72;;;;;;;;;;5105040;28;20039;-58
2021/01/20 05:00:37;;;;;;;6.30;2.88;;;;;;;;;;5106706;28;20076;-56
2021/01/20 05:03:05;;;;;;;5.07;2.35;;;;;;;;;;5108340;28;20054;-58
2021/01/20 05:05:31;;;;;;;5.60;3.15;;;;;;;;;;5104599;28;20073;-58
2021/01/20 05:07:56;;;;;;;5.97;3.33;;;;;;;;;;5110469;28;20051;-58
2021/01/20 05:10:21;;;;;;;5.57;2.40;;;;;;;;;;5106453;28;20031;-58
2021/01/20 05:12:47;;;;;;;7.50;3.03;;;;;;;;;;5105267;28;20035;-58
2021/01/20 05:15:16;;;;;;;5.75;3.30;;;;;;;;;;5110287;28;20464;-58
2021/01/20 05:18:04;;;;;;;6.00;3.45;;;;;;;;;;5105961;28;20024;-58
2021/01/20 05:20:35;;;;;;;5.65;2.95;;;;;;;;;;5104987;28;20032;-58
2021/01/20 05:23:02;;;;;;;5.30;2.90;;;;;;;;;;5107536;28;20040;-58
2021/01/20 05:25:32;;;;;;;6.72;2.72;;;;;;;;;;5106154;28;20027;-58
2021/01/20 05:28:14;;;;;;;4.35;2.50;;;;;;;;;;5108033;28;20103;-58
2021/01/20 05:30:59;;;;;;;5.70;3.05;;;;;;;;;;5109214;28;20032;-58
2021/01/20 05:33:33;;;;;;;6.63;2.67;;;;;;;;;;5105359;28;20062;-58
2021/01/20 05:36:09;;;;;;;5.75;2.58;;;;;;;;;;5109167;28;20043;-58
2021/01/20 05:38:39;;;;;;;4.25;2.47;;;;;;;;;;5107942;28;20039;-58
2021/01/20 05:41:23;;;;;;;5.15;2.70;;;;;;;;;;5103697;28;20031;-58
2021/01/20 05:43:50;;;;;;;6.05;2.60;;;;;;;;;;5101877;28;20403;-58
2021/01/20 05:46:30;;;;;;;4.18;2.50;;;;;;;;;;5107455;28;20096;-58
2021/01/20 05:48:55;;;;;;;4.72;2.20;;;;;;;;;;5104172;28;20113;-58
2021/01/20 05:51:21;;;;;;;4.22;2.53;;;;;;;;;;5107870;28;20089;-58
2021/01/20 05:53:51;;;;;;;5.15;2.65;;;;;;;;;;5109832;28;20057;-58
2021/01/20 05:56:24;;;;;;;5.68;2.97;;;;;;;;;;5105647;28;20043;-57
2021/01/20 05:58:49;;;;;;;5.35;2.72;;;;;;;;;;5106908;28;20130;-58
2021/01/20 06:01:15;;;;;;;7.57;2.85;;;;;;;;;;5104278;28;20560;-58
2021/01/20 06:03:40;;;;;;;4.75;2.75;;;;;;;;;;5106754;28;20042;-58
2021/01/20 06:06:07;;;;;;;5.53;2.75;;;;;;;;;;5107275;28;20052;-58
2021/01/20 06:08:34;;;;;;;5.07;2.63;;;;;;;;;;5102399;28;20040;-58
2021/01/20 06:10:59;;;;;;;5.72;3.42;;;;;;;;;;5105350;28;20532;-58
2021/01/20 06:13:25;;;;;;;5.13;3.08;;;;;;;;;;5103782;28;20110;-58
2021/01/20 06:15:55;;;;;;;5.60;2.80;;;;;;;;;;5102256;28;20031;-59
2021/01/20 06:18:24;;;;;;;7.13;3.20;;;;;;;;;;5105259;28;20036;-58
2021/01/20 06:20:51;;;;;;;5.10;2.80;;;;;;;;;;5101544;28;20028;-58
2021/01/20 06:23:21;;;;;;;7.05;3.65;;;;;;;;;;5105523;28;20062;-58
2021/01/20 06:25:48;;;;;;;6.53;3.08;;;;;;;;;;5105392;28;20111;-58
2021/01/20 06:28:14;;;;;;;120.63;74.90;;;;;;;;;;5109269;28;20460;-58
2021/01/20 06:30:43;;;;;;;49.60;34.85;;;;;;;;;;5102832;28;20031;-58
2021/01/20 06:33:11;;;;;;;18.25;15.00;;;;;;;;;;5107326;28;20624;-59
2021/01/20 06:35:38;;;;;;;15.60;12.65;;;;;;;;;;5111122;28;20046;-59
2021/01/20 06:38:04;;;;;;;11.90;8.02;;;;;;;;;;5108150;28;20119;-59
2021/01/20 06:40:32;;;;;;;4.45;2.88;;;;;;;;;;5109746;28;20114;-59
2021/01/20 06:42:57;;;;;;;272.92;194.02;;;;;;;;;;5110616;28;20084;-59
2021/01/20 06:45:26;;;;;;;44.35;29.98;;;;;;;;;;5106427;28;20032;-59
2021/01/20 06:48:00;;;;;;;17.85;12.48;;;;;;;;;;5108999;28;20035;-59
2021/01/20 06:50:26;;;;;;;26.00;20.85;;;;;;;;;;5109762;28;20047;-59
2021/01/20 06:53:08;;;;;;;14.93;10.35;;;;;;;;;;5106960;28;20158;-59
2021/01/20 06:55:38;;;;;;;5.88;3.97;;;;;;;;;;5107851;28;20111;-59
2021/01/20 06:58:19;;;;;;;5.70;3.50;;;;;;;;;;5110778;28;20118;-59
2021/01/20 07:00:59;;;;;;;;;;;;;;;;;;5107339;28;20032;-59
2021/01/20 07:03:44;;;;;;;5.45;2.83;;;;;;;;;;5112440;28;19919;-59
2021/01/20 07:06:34;;;;;;;6.72;2.80;;;;;;;;;;5109959;28;20049;-59
2021/01/20 07:09:01;;;;;;;7.55;3.25;;;;;;;;;;5108987;28;20046;-59
2021/01/20 07:11:26;;;;;;;4.90;3.00;;;;;;;;;;5111283;28;20114;-59
2021/01/20 07:13:52;;;;;;;5.50;3.28;;;;;;;;;;5110592;27;20177;-59
2021/01/20 07:16:18;;;;;;;4.50;2.58;;;;;;;;;;5110254;28;20047;-60
2021/01/20 07:18:48;;;;;;;6.60;3.70;;;;;;;;;;5110636;28;20027;-60
2021/01/20 07:21:14;;;;;;;10.52;4.20;;;;;;;;;;5105991;28;20095;-58
2021/01/20 07:23:40;;;;;;;6.10;3.13;;;;;;;;;;5107556;28;20445;-58
2021/01/20 07:26:06;;;;;;;5.35;3.05;;;;;;;;;;5112438;28;20125;-58
2021/01/20 07:28:33;;;;;;;6.50;3.25;;;;;;;;;;5107230;28;20050;-58
2021/01/20 07:31:11;;;;;;;5.55;2.85;;;;;;;;;;5109478;28;20024;-58
2021/01/20 07:33:48;;;;;;;7.90;4.05;;;;;;;;;;5109437;28;20062;-58
2021/01/20 07:36:16;;;;;;;6.57;3.30;;;;;;;;;;5108318;28;20035;-58
2021/01/20 07:38:45;;;;;;;6.07;3.75;;;;;;;;;;5110114;28;20031;-58
2021/01/20 07:41:19;;;;;;;5.38;3.30;;;;;;;;;;5110418;28;20035;-58
2021/01/20 07:43:45;;;;;;;9.20;3.42;;;;;;;;;;5108432;28;20051;-58
2021/01/20 07:46:22;;;;;;;8.15;3.03;;;;;;;;;;5109960;28;20039;-58
2021/01/20 07:48:48;;;;;;;5.05;3.03;;;;;;;;;;5110153;28;20525;-58
2021/01/20 07:51:19;;;;;;;6.75;3.40;;;;;;;;;;5106528;28;20525;-58
2021/01/20 07:54:04;;;;;;;6.65;2.80;;;;;;;;;;5109528;28;20035;-58
2021/01/20 07:56:30;;;;;;;4.80;2.83;;;;;;;;;;5104687;28;20069;-58
2021/01/20 07:58:57;;;;;;;5.35;2.67;;;;;;;;;;5106102;28;20059;-57
2021/01/20 08:01:30;;;;;;;5.20;2.97;;;;;;;;;;5109877;28;20032;-57
2021/01/20 08:03:57;;;;;;;5.05;2.78;;;;;;;;;;5109210;28;20040;-58
2021/01/20 08:06:26;;;;;;;8.18;3.35;;;;;;;;;;5106865;28;20042;-57
2021/01/20 08:08:52;;;;;;;6.13;3.45;;;;;;;;;;5108973;28;20035;-59
2021/01/20 08:11:18;;;;;;;5.82;3.20;;;;;;;;;;5108825;28;20536;-58
2021/01/20 08:13:44;;;;;;;5.28;2.90;;;;;;;;;;5108195;28;20084;-57
2021/01/20 08:16:10;;;;;;;6.13;3.58;;;;;;;;;;5110624;28;20118;-58
2021/01/20 08:18:36;;;;;;;5.82;3.00;;;;;;;;;;5105968;28;20035;-57
2021/01/20 08:21:05;;;;;;;5.95;3.13;;;;;;;;;;5107456;28;20043;-57
2021/01/20 08:23:48;;;;;;;5.03;2.90;;;;;;;;;;5111315;28;20028;-58
2021/01/20 08:26:13;;;;;;;5.82;2.85;;;;;;;;;;5109696;28;20567;-58
2021/01/20 08:28:38;;;;;;;8.40;3.10;;;;;;;;;;5107044;28;20107;-58
2021/01/20 08:31:22;;;;;;;5.68;2.72;;;;;;;;;;5110145;28;20043;-58
2021/01/20 08:33:47;;;;;;;6.85;3.05;;;;;;;;;;5107682;28;20063;-58
2021/01/20 08:36:23;;;;;;;5.15;3.05;;;;;;;;;;5108938;28;20035;-58
2021/01/20 08:38:49;;;;;;;5.75;2.72;;;;;;;;;;5109783;28;20457;-58
2021/01/20 08:41:15;;;;;;;8.20;3.30;;;;;;;;;;5108414;28;20128;-58
2021/01/20 08:43:42;;;;;;;7.20;2.90;;;;;;;;;;5107228;28;20046;-58
2021/01/20 08:46:27;;;;;;;9.57;3.25;;;;;;;;;;5110410;28;20629;-57
2021/01/20 08:48:57;;;;;;;4.97;2.58;;;;;;;;;;5105139;28;20092;-58
2021/01/20 08:51:22;;;;;;;5.45;2.75;;;;;;;;;;5109042;28;20024;-58
2021/01/20 08:53:48;;;;;;;4.97;2.13;;;;;;;;;;5108392;28;20091;-58
2021/01/20 08:56:24;;;;;;;6.72;2.60;;;;;;;;;;5106177;28;20031;-57
2021/01/20 08:58:53;;;;;;;6.68;3.00;;;;;;;;;;5109577;28;20492;-59
2021/01/20 09:01:21;;;;;;;5.63;2.75;;;;;;;;;;5106554;28;20047;-59
2021/01/20 09:04:01;;;;;;;5.72;3.35;;;;;;;;;;5105164;28;20102;-57
2021/01/20 09:06:27;;;;;;;4.22;2.50;;;;;;;;;;5105415;28;20031;-58
2021/01/20 09:08:56;;;;;;;5.57;2.90;;;;;;;;;;5108261;28;20027;-58
2021/01/20 09:11:22;;;;;;;7.40;3.00;;;;;;;;;;5108411;28;20571;-57
2021/01/20 09:13:49;;;;;;;6.15;3.08;;;;;;;;;;5109059;28;20099;-58
2021/01/20 09:16:15;;;;;;;6.15;3.22;;;;;;;;;;5105635;28;20046;-58
2021/01/20 09:18:40;;;;;;;5.60;3.22;;;;;;;;;;5105558;28;20028;-58
2021/01/20 09:21:06;;;;;;;5.45;2.90;;;;;;;;;;5109473;28;20028;-58
2021/01/20 09:23:32;;;;;;;7.22;2.85;;;;;;;;;;5104871;28;20042;-58
2021/01/20 09:25:58;;;;;;;6.10;3.05;;;;;;;;;;5104258;28;20106;-58
2021/01/20 09:28:24;;;;;;;4.40;2.70;;;;;;;;;;5109189;28;20590;-59
2021/01/20 09:30:50;;;;;;;5.43;3.08;;;;;;;;;;5109114;28;20038;-58
2021/01/20 09:33:16;;;;;;;5.45;2.60;;;;;;;;;;5104165;28;20612;-58
2021/01/20 09:35:43;;;;;;;5.38;3.15;;;;;;;;;;5102667;28;20035;-57
2021/01/20 09:38:10;;;;;;;5.05;2.95;;;;;;;;;;5105906;28;20051;-57
2021/01/20 09:40:35;;;;;;;6.32;3.28;;;;;;;;;;5108006;28;20232;-58
2021/01/20 09:43:01;;;;;;;5.90;3.17;;;;;;;;;;5106533;28;20163;-58
2021/01/20 09:45:27;;;;;;;6.47;3.30;;;;;;;;;;5105355;28;20035;-58
2021/01/20 09:47:57;;;;;;;4.53;2.63;;;;;;;;;;5105160;28;20067;-58
2021/01/20 09:50:24;;;;;;;6.95;3.00;;;;;;;;;;5103832;28;20506;-58
2021/01/20 09:52:50;;;;;;;5.72;3.17;;;;;;;;;;5105703;28;20024;-58
2021/01/20 09:55:15;;;;;;;6.63;2.75;;;;;;;;;;5107490;28;20110;-58
2021/01/20 09:57:41;;;;;;;4.13;2.38;;;;;;;;;;5107646;28;20188;-58
2021/01/20 10:00:08;;;;;;;10.15;3.28;;;;;;;;;;5104665;28;20464;-58
2021/01/20 10:02:34;;;;;;;5.43;3.08;;;;;;;;;;5107342;28;20032;-58
2021/01/20 10:04:59;;;;;;;7.55;3.40;;;;;;;;;;5109328;28;20042;-58
2021/01/20 10:07:25;;;;;;;8.57;3.40;;;;;;;;;;5105346;28;20120;-58
2021/01/20 10:09:50;;;;;;;9.50;2.63;;;;;;;;;;5107683;28;20027;-58
2021/01/20 10:12:18;;;;;;;6.00;2.88;;;;;;;;;;5108842;28;20043;-59
2021/01/20 10:14:44;;;;;;;5.57;3.33;;;;;;;;;;5110136;28;20032;-58
2021/01/20 10:17:09;;;;;;;5.95;3.00;;;;;;;;;;5107666;28;20042;-59
2021/01/20 10:19:35;;;;;;;5.95;2.97;;;;;;;;;;5113556;28;20036;-59
2021/01/20 10:22:00;;;;;;;6.13;2.88;;;;;;;;;;5111092;28;20043;-58
2021/01/20 10:24:26;;;;;;;5.10;2.70;;;;;;;;;;5110908;28;20032;-59
2021/01/20 10:26:51;;;;;;;7.55;2.65;;;;;;;;;;5112843;28;20023;-58
2021/01/20 10:29:17;;;;;;;7.43;2.95;;;;;;;;;;5109408;28;20118;-61
2021/01/20 10:31:42;;;;;;;5.18;2.90;;;;;;;;;;5113187;28;20016;-61
2021/01/20 10:34:10;;;;;;;8.32;3.40;;;;;;;;;;5107188;28;20069;-61
2021/01/20 10:36:37;;;;;;;7.25;2.97;;;;;;;;;;5111063;28;20372;-62
2021/01/20 10:39:04;;;;;;;8.32;2.60;;;;;;;;;;5109938;28;20044;-61
2021/01/20 10:41:29;;;;;;;4.82;2.67;;;;;;;;;;5111139;28;20035;-62
2021/01/20 10:43:55;;;;;;;7.38;3.55;;;;;;;;;;5109931;28;20050;-63
2021/01/20 10:46:27;;;;;;;6.80;3.00;;;;;;;;;;5108220;28;20035;-62
2021/01/20 10:48:55;;;;;;;5.85;3.08;;;;;;;;;;5111705;28;20045;-61
2021/01/20 10:51:21;;;;;;;5.22;2.50;;;;;;;;;;5109980;28;20113;-61
2021/01/20 10:53:47;;;;;;;5.47;2.38;;;;;;;;;;5107158;28;20070;-61
2021/01/20 10:56:12;;;;;;;5.75;2.90;;;;;;;;;;5112539;28;20059;-61
2021/01/20 10:58:37;;;;;;;7.25;2.70;;;;;;;;;;5110521;28;20050;-61
2021/01/20 11:01:03;;;;;;;6.57;2.63;;;;;;;;;;5112105;28;20160;-61
2021/01/20 11:03:29;;;;;;;6.05;3.05;;;;;;;;;;5111246;28;20043;-61
2021/01/20 11:05:55;;;;;;;4.20;2.45;;;;;;;;;;5110839;28;20373;-62
2021/01/20 11:08:20;;;;;;;7.03;2.30;;;;;;;;;;5112757;28;20063;-61
2021/01/20 11:10:46;;;;;;;4.68;2.25;;;;;;;;;;5111811;28;20468;-62
2021/01/20 11:13:11;;;;;;;5.05;2.35;;;;;;;;;;5108460;28;20067;-61
2021/01/20 11:15:38;;;;;;;5.15;2.42;;;;;;;;;;5109859;28;20041;-61
2021/01/20 11:18:05;;;;;;;6.55;2.75;;;;;;;;;;5109388;28;20031;-62
2021/01/20 11:20:31;;;;;;;4.63;2.78;;;;;;;;;;5107000;28;20066;-61
2021/01/20 11:22:57;;;;;;;4.78;2.25;;;;;;;;;;5109518;28;20040;-61
2021/01/20 11:25:23;;;;;;;3.80;2.17;;;;;;;;;;5110442;28;20457;-62
2021/01/20 11:27:49;;;;;;;5.05;2.63;;;;;;;;;;5109675;28;20036;-62
2021/01/20 11:30:15;;;;;;;6.40;2.55;;;;;;;;;;5104637;28;20434;-61
2021/01/20 11:32:41;;;;;;;5.18;2.25;;;;;;;;;;5106679;28;20111;-62
2021/01/20 11:35:06;;;;;;;9.38;2.72;;;;;;;;;;5111046;28;20070;-62
2021/01/20 11:37:32;;;;;;;6.25;2.72;;;;;;;;;;5107200;28;20107;-61
2021/01/20 11:40:01;;;;;;;5.50;2.28;;;;;;;;;;5106350;28;20043;-62
2021/01/20 11:42:26;;;;;;;4.05;2.13;;;;;;;;;;5109276;28;20035;-62
2021/01/20 11:44:52;;;;;;;4.70;2.40;;;;;;;;;;5110015;28;20551;-62
2021/01/20 11:47:17;;;;;;;4.03;2.33;;;;;;;;;;5106713;28;20080;-62
2021/01/20 11:49:42;;;;;;;4.90;2.90;;;;;;;;;;5110929;28;20027;-62
2021/01/20 11:52:07;;;;;;;6.07;2.20;;;;;;;;;;5109069;28;20027;-62
2021/01/20 11:54:33;;;;;;;7.05;2.97;;;;;;;;;;5106969;28;20028;-62
2021/01/20 11:56:58;;;;;;;8.60;2.72;;;;;;;;;;5109620;28;20055;-62
2021/01/20 11:59:23;;;;;;;6.07;2.50;;;;;;;;;;5108813;28;20028;-62
2021/01/20 12:01:49;;;;;;;6.80;2.80;;;;;;;;;;5107591;28;20441;-61
2021/01/20 12:04:14;;;;;;;6.03;2.55;;;;;;;;;;5107831;28;20024;-60
2021/01/20 12:06:40;;;;;;;9.43;3.03;;;;;;;;;;5105490;28;20028;-62
2021/01/20 12:09:05;;;;;;;5.43;2.70;;;;;;;;;;5106432;28;20038;-62
2021/01/20 12:11:30;;;;;;;4.20;2.22;;;;;;;;;;5110755;28;20023;-61
2021/01/20 12:13:56;;;;;;;5.35;2.45;;;;;;;;;;5109396;28;20114;-62
2021/01/20 12:16:21;;;;;;;3.88;2.05;;;;;;;;;;5106662;28;20139;-62
2021/01/20 12:18:46;;;;;;;5.05;2.35;;;;;;;;;;5106522;28;20119;-62
2021/01/20 12:21:12;;;;;;;7.57;2.15;;;;;;;;;;5107943;28;20039;-62
2021/01/20 12:23:37;;;;;;;3.95;1.95;;;;;;;;;;5105400;28;20457;-62
2021/01/20 12:26:02;;;;;;;4.05;2.15;;;;;;;;;;5106389;28;20097;-61
2021/01/20 12:28:28;;;;;;;5.07;2.03;;;;;;;;;;5102851;28;20041;-62
2021/01/20 12:30:53;;;;;;;4.65;2.30;;;;;;;;;;5103743;28;20023;-63
2021/01/20 12:33:18;;;;;;;3.22;2.20;;;;;;;;;;5102314;28;20058;-62
2021/01/20 12:35:44;;;;;;;4.45;2.35;;;;;;;;;;5102281;28;20062;-62
2021/01/20 12:38:09;;;;;;;10.27;2.63;;;;;;;;;;5108027;28;20437;-62
2021/01/20 12:40:34;;;;;;;5.45;2.20;;;;;;;;;;5104316;28;20028;-62
2021/01/20 12:43:00;;;;;;;4.97;2.40;;;;;;;;;;5105486;28;20084;-62
2021/01/20 12:45:25;;;;;;;8.70;2.70;;;;;;;;;;5107906;28;20417;-62
2021/01/20 12:47:50;;;;;;;8.48;2.42;;;;;;;;;;5108874;28;20024;-62
2021/01/20 12:50:16;;;;;;;4.20;2.08;;;;;;;;;;5108751;28;20502;-61
2021/01/20 12:52:41;;;;;;;5.93;2.42;;;;;;;;;;5110535;28;20562;-62
2021/01/20 12:55:08;;;;;;;4.60;2.47;;;;;;;;;;5106268;28;20517;-61
2021/01/20 12:57:33;;;;;;;6.53;2.65;;;;;;;;;;5108183;28;20035;-61
2021/01/20 12:59:58;;;;;;;5.25;2.40;;;;;;;;;;5100640;28;20444;-61
2021/01/20 13:02:24;;;;;;;4.22;1.90;;;;;;;;;;5105603;28;20840;-62
2021/01/20 13:04:49;;;;;;;6.47;2.40;;;;;;;;;;5107686;28;20460;-62
2021/01/20 13:07:14;;;;;;;3.83;1.98;;;;;;;;;;5103444;28;20070;-62
2021/01/20 13:09:43;;;;;;;5.03;2.10;;;;;;;;;;5108561;28;20031;-62
2021/01/20 13:12:09;;;;;;;6.13;2.65;;;;;;;;;;5107595;28;20047;-61
2021/01/20 13:14:34;;;;;;;6.30;2.45;;;;;;;;;;5104528;28;20073;-62
2021/01/20 13:17:00;;;;;;;5.30;1.92;;;;;;;;;;5108755;28;20043;-61
2021/01/20 13:19:26;;;;;;;3.45;1.90;;;;;;;;;;5105967;28;20032;-62
2021/01/20 13:21:52;;;;;;;5.35;2.45;;;;;;;;;;5104788;28;20028;-63
2021/01/20 13:24:18;;;;;;;5.60;2.20;;;;;;;;;;5106633;28;20052;-62
2021/01/20 13:26:43;;;;;;;9.43;2.45;;;;;;;;;;5105256;28;20480;-62
2021/01/20 13:29:09;;;;;;;5.25;2.28;;;;;;;;;;5107008;27;20528;-63
2021/01/20 13:31:34;;;;;;;4.97;2.40;;;;;;;;;;5106874;28;20495;-62
2021/01/20 13:33:59;;;;;;;8.77;2.45;;;;;;;;;;5105898;28;20055;-62
2021/01/20 13:36:25;;;;;;;13.60;2.80;;;;;;;;;;5103321;28;20035;-61
2021/01/20 13:38:50;;;;;;;6.82;2.40;;;;;;;;;;5103230;28;20027;-62
2021/01/20 13:41:15;;;;;;;4.68;2.05;;;;;;;;;;5102988;28;20376;-61
2021/01/20 13:43:40;;;;;;;4.65;2.17;;;;;;;;;;5103830;28;20107;-61
2021/01/20 13:46:06;;;;;;;4.30;2.10;;;;;;;;;;5104873;28;20031;-61
2021/01/20 13:48:31;;;;;;;3.47;1.83;;;;;;;;;;5106503;28;20056;-62
2021/01/20 13:50:57;;;;;;;3.60;1.65;;;;;;;;;;5107390;28;20032;-62
2021/01/20 13:53:22;;;;;;;6.00;1.90;;;;;;;;;;5103760;28;20035;-62
2021/01/20 13:55:48;;;;;;;4.00;1.73;;;;;;;;;;5108745;28;20036;-62
2021/01/20 13:58:13;;;;;;;6.30;2.35;;;;;;;;;;5108203;28;20380;-62
2021/01/20 14:00:38;;;;;;;4.03;2.22;;;;;;;;;;5103906;28;20093;-62
2021/01/20 14:03:04;;;;;;;7.32;2.28;;;;;;;;;;5109637;28;20043;-62
2021/01/20 14:05:29;;;;;;;4.82;2.15;;;;;;;;;;5108191;28;20039;-61
2021/01/20 14:07:54;;;;;;;4.43;2.00;;;;;;;;;;5103935;28;20089;-61
2021/01/20 14:10:20;;;;;;;3.13;1.88;;;;;;;;;;5105893;28;20051;-62
2021/01/20 14:12:45;;;;;;;4.70;2.03;;;;;;;;;;5108584;28;20027;-61
2021/01/20 14:15:11;;;;;;;3.00;1.65;;;;;;;;;;5105638;28;20050;-62
2021/01/20 14:17:36;;;;;;;5.15;2.20;;;;;;;;;;5107058;28;20114;-61
2021/01/20 14:20:03;;;;;;;4.05;1.77;;;;;;;;;;5106638;28;20050;-62
2021/01/20 14:22:31;;;;;;;6.63;2.53;;;;;;;;;;5103387;28;20032;-62
2021/01/20 14:24:56;;;;;;;4.93;2.13;;;;;;;;;;5109364;28;20032;-62
2021/01/20 14:27:22;;;;;;;3.80;1.85;;;;;;;;;;5105793;28;20043;-62
2021/01/20 14:29:47;;;;;;;4.03;1.60;;;;;;;;;;5105403;28;20473;-62
2021/01/20 14:32:13;;;;;;;5.13;1.80;;;;;;;;;;5109193;28;20453;-61
2021/01/20 14:34:39;;;;;;;4.93;2.10;;;;;;;;;;5107414;28;20050;-62
2021/01/20 14:37:04;;;;;;;4.85;2.33;;;;;;;;;;5104176;28;20055;-62
2021/01/20 14:39:30;;;;;;;11.73;2.33;;;;;;;;;;5106644;28;20410;-62
2021/01/20 14:41:55;;;;;;;4.32;2.13;;;;;;;;;;5106813;28;20091;-62
2021/01/20 14:44:20;;;;;;;9.60;2.45;;;;;;;;;;5106305;28;20027;-62